createdAt,value
2023-05-10T00:00:58.495Z,10.02
2023-05-10T00:03:25.201Z,10.16
2023-05-10T00:05:51.877Z,10.19
2023-05-10T00:08:18.580Z,10.05
2023-05-10T00:10:45.271Z,10.16
2023-05-10T00:13:12.222Z,9.95
2023-05-10T00:15:38.899Z,9.75
2023-05-10T00:18:05.774Z,9.63
2023-05-10T00:20:32.450Z,9.16
2023-05-10T00:22:59.172Z,9.39
2023-05-10T00:25:26.045Z,9.93
2023-05-10T00:27:52.859Z,9.00
2023-05-10T00:30:19.973Z,9.88
2023-05-10T00:32:46.877Z,9.92
2023-05-10T00:35:13.680Z,10.05
2023-05-10T00:37:40.340Z,10.05
2023-05-10T00:40:08.026Z,9.99
2023-05-10T00:42:34.929Z,9.33
2023-05-10T00:45:01.811Z,9.77
2023-05-10T00:47:29.798Z,9.71
2023-05-10T00:49:57.241Z,9.66
2023-05-10T00:52:24.717Z,9.64
2023-05-10T00:54:53.446Z,9.66
2023-05-10T00:57:20.473Z,8.79
2023-05-10T00:59:47.412Z,9.36
2023-05-10T01:02:14.286Z,9.37
2023-05-10T01:04:41.690Z,9.48
2023-05-10T01:07:08.703Z,9.54
2023-05-10T01:09:35.669Z,9.47
2023-05-10T01:12:02.911Z,9.04
2023-05-10T01:14:30.504Z,8.90
2023-05-10T01:16:57.467Z,8.64
2023-05-10T01:19:27.656Z,8.46
2023-05-10T01:21:57.431Z,8.67
2023-05-10T01:24:30.161Z,9.02
2023-05-10T01:27:15.059Z,9.22
2023-05-10T01:30:14.248Z,9.30
2023-05-10T01:33:16.559Z,9.20
2023-05-10T01:35:51.296Z,9.29
2023-05-10T01:38:33.244Z,9.24
2023-05-10T01:41:15.860Z,9.38
2023-05-10T01:44:23.108Z,9.24
2023-05-10T01:47:10.024Z,8.67
2023-05-10T01:49:43.022Z,8.41
2023-05-10T01:52:13.097Z,8.00
2023-05-10T01:54:45.734Z,8.75
2023-05-10T01:57:15.398Z,8.82
2023-05-10T01:59:46.347Z,8.71
2023-05-10T02:02:15.950Z,8.72
2023-05-10T02:04:44.517Z,8.77
2023-05-10T02:07:12.675Z,7.79
2023-05-10T02:09:39.637Z,8.60
2023-05-10T02:12:07.998Z,8.86
2023-05-10T02:14:37.701Z,9.08
2023-05-10T02:17:07.091Z,8.07
2023-05-10T02:19:35.409Z,8.85
2023-05-10T02:22:04.332Z,8.72
2023-05-10T02:24:34.256Z,8.40
2023-05-10T02:27:03.384Z,8.43
2023-05-10T02:29:32.135Z,7.46
2023-05-10T02:32:00.362Z,8.50
2023-05-10T02:34:28.923Z,8.70
2023-05-10T02:36:57.257Z,8.48
2023-05-10T02:39:25.755Z,7.61
2023-05-10T02:41:54.567Z,8.58
2023-05-10T02:44:23.610Z,8.47
2023-05-10T02:46:50.789Z,6.68
2023-05-10T02:49:17.527Z,8.51
2023-05-10T02:51:52.497Z,8.44
2023-05-10T02:54:21.384Z,8.38
2023-05-10T02:56:54.759Z,8.19
2023-05-10T02:59:21.735Z,8.54
2023-05-10T03:01:48.518Z,8.54
2023-05-10T03:04:15.240Z,8.62
2023-05-10T03:06:42.300Z,8.75
2023-05-10T03:09:10.499Z,8.23
2023-05-10T03:12:08.047Z,8.98
2023-05-10T03:15:09.109Z,8.93
2023-05-10T03:17:54.467Z,9.03
2023-05-10T03:20:32.565Z,9.22
2023-05-10T03:23:14.977Z,9.30
2023-05-10T03:25:44.712Z,9.38
2023-05-10T03:28:13.219Z,9.38
2023-05-10T03:30:41.581Z,9.30
2023-05-10T03:33:10.619Z,9.35
2023-05-10T03:35:40.796Z,8.73
2023-05-10T03:38:07.528Z,8.41
2023-05-10T03:40:34.397Z,6.73
2023-05-10T03:43:01.142Z,8.36
2023-05-10T03:45:27.952Z,8.62
2023-05-10T03:47:55.302Z,8.82
2023-05-10T03:50:22.246Z,8.58
2023-05-10T03:52:49.035Z,6.74
2023-05-10T03:55:16.154Z,8.40
2023-05-10T03:57:42.992Z,8.91
2023-05-10T04:00:10.710Z,7.93
2023-05-10T04:02:43.836Z,8.05
2023-05-10T04:05:16.757Z,8.72
2023-05-10T04:07:45.274Z,8.27
2023-05-10T04:10:12.421Z,8.32
2023-05-10T04:12:39.225Z,7.35
2023-05-10T04:15:06.455Z,8.13
2023-05-10T04:17:33.366Z,8.43
2023-05-10T04:20:00.108Z,8.33
2023-05-10T04:22:26.962Z,7.08
2023-05-10T04:24:53.712Z,8.51
2023-05-10T04:27:20.982Z,8.50
2023-05-10T04:29:47.586Z,8.50
2023-05-10T04:32:14.254Z,8.35
2023-05-10T04:34:41.150Z,8.03
2023-05-10T04:37:08.606Z,8.10
2023-05-10T04:39:36.158Z,7.79
2023-05-10T04:42:04.309Z,7.26
2023-05-10T04:44:31.672Z,8.49
2023-05-10T04:46:58.526Z,7.49
2023-05-10T04:49:25.184Z,8.70
2023-05-10T04:51:51.832Z,7.67
2023-05-10T04:54:18.587Z,8.60
2023-05-10T04:56:45.276Z,8.98
2023-05-10T04:59:12.162Z,9.05
2023-05-10T05:01:39.114Z,9.17
2023-05-10T05:04:06.035Z,9.15
2023-05-10T05:06:32.712Z,9.33
2023-05-10T05:08:59.304Z,9.40
2023-05-10T05:11:26.878Z,9.03
2023-05-10T05:13:53.616Z,9.56
2023-05-10T05:16:20.369Z,9.69
2023-05-10T05:18:47.213Z,9.61
2023-05-10T05:21:18.414Z,9.66
2023-05-10T05:23:45.243Z,9.77
2023-05-10T05:26:12.029Z,9.87
2023-05-10T05:28:38.948Z,9.92
2023-05-10T05:31:06.753Z,9.15
2023-05-10T05:33:33.540Z,10.00
2023-05-10T05:36:06.972Z,10.14
2023-05-10T05:38:33.864Z,10.25
2023-05-10T05:41:00.543Z,10.27
2023-05-10T05:43:28.749Z,9.95
2023-05-10T05:45:55.651Z,9.89
2023-05-10T05:48:22.325Z,9.55
2023-05-10T05:50:48.961Z,10.28
2023-05-10T05:53:15.725Z,10.58
2023-05-10T05:55:55.879Z,10.68
2023-05-10T05:58:23.577Z,10.23
2023-05-10T06:00:50.336Z,10.60
2023-05-10T06:03:17.380Z,10.93
2023-05-10T06:05:44.793Z,10.95
2023-05-10T06:08:11.763Z,11.01
2023-05-10T06:10:38.939Z,10.53
2023-05-10T06:13:05.834Z,11.11
2023-05-10T06:15:33.635Z,11.17
2023-05-10T06:18:00.465Z,10.79
2023-05-10T06:20:27.421Z,11.00
2023-05-10T06:22:54.362Z,11.21
2023-05-10T06:25:20.976Z,11.09
2023-05-10T06:27:51.101Z,11.31
2023-05-10T06:30:20.407Z,10.98
2023-05-10T06:32:47.289Z,11.27
2023-05-10T06:35:14.129Z,11.42
2023-05-10T06:37:40.890Z,11.33
2023-05-10T06:40:08.389Z,11.35
2023-05-10T06:42:35.382Z,11.52
2023-05-10T06:45:03.314Z,11.56
2023-05-10T06:47:29.901Z,11.64
2023-05-10T06:49:56.895Z,11.64
2023-05-10T06:52:24.325Z,11.00
2023-05-10T06:54:51.028Z,11.69
2023-05-10T06:57:30.414Z,11.68
2023-05-10T06:59:59.384Z,11.49
2023-05-10T07:02:26.077Z,11.17
2023-05-10T07:04:53.458Z,11.82
2023-05-10T07:07:20.289Z,11.84
2023-05-10T07:09:47.290Z,11.67
2023-05-10T07:12:15.285Z,11.00
2023-05-10T07:14:43.201Z,11.92
2023-05-10T07:17:10.365Z,11.77
2023-05-10T07:19:37.145Z,12.01
2023-05-10T07:22:03.881Z,11.58
2023-05-10T07:24:32.121Z,12.08
2023-05-10T07:26:58.939Z,12.13
2023-05-10T07:29:25.725Z,12.03
2023-05-10T07:31:52.410Z,12.29
2023-05-10T07:34:19.184Z,12.35
2023-05-10T07:36:45.860Z,12.14
2023-05-10T07:39:16.279Z,12.40
2023-05-10T07:41:48.009Z,12.52
2023-05-10T07:44:14.648Z,12.29
2023-05-10T07:46:41.550Z,12.60
2023-05-10T07:49:08.359Z,12.65
2023-05-10T07:51:35.120Z,12.49
2023-05-10T07:54:03.449Z,12.40
2023-05-10T07:56:32.653Z,12.94
2023-05-10T07:59:00.760Z,12.70
2023-05-10T08:01:32.097Z,12.98
2023-05-10T08:03:58.907Z,13.04
2023-05-10T08:06:28.085Z,12.92
2023-05-10T08:08:55.195Z,12.91
2023-05-10T08:11:22.151Z,13.09
2023-05-10T08:13:50.776Z,13.14
2023-05-10T08:16:18.464Z,13.02
2023-05-10T08:18:47.910Z,13.19
2023-05-10T08:21:15.554Z,13.24
2023-05-10T08:23:42.383Z,13.24
2023-05-10T08:26:09.048Z,13.27
2023-05-10T08:28:35.684Z,13.22
2023-05-10T08:31:02.353Z,13.13
2023-05-10T08:33:29.052Z,12.74
2023-05-10T08:35:55.767Z,12.77
2023-05-10T08:38:22.358Z,13.33
2023-05-10T08:40:51.710Z,13.42
2023-05-10T08:43:19.218Z,13.54
2023-05-10T08:45:49.167Z,13.57
2023-05-10T08:48:16.952Z,13.41
2023-05-10T08:50:44.086Z,13.54
2023-05-10T08:53:13.549Z,13.54
2023-05-10T08:55:43.029Z,13.60
2023-05-10T08:58:10.902Z,13.67
2023-05-10T09:00:40.740Z,13.53
2023-05-10T09:03:08.131Z,13.58
2023-05-10T09:05:34.848Z,13.79
2023-05-10T09:08:01.686Z,13.84
2023-05-10T09:10:29.043Z,13.85
2023-05-10T09:12:59.393Z,13.84
2023-05-10T09:15:27.141Z,13.44
2023-05-10T09:17:55.609Z,13.87
2023-05-10T09:20:22.250Z,13.80
2023-05-10T09:22:49.049Z,13.83
2023-05-10T09:25:17.394Z,13.89
2023-05-10T09:27:49.015Z,13.98
2023-05-10T09:30:26.499Z,14.14
2023-05-10T09:32:54.242Z,14.24
2023-05-10T09:35:23.153Z,14.26
2023-05-10T09:37:52.500Z,14.36
2023-05-10T09:40:22.956Z,14.39
2023-05-10T09:43:07.864Z,14.38
2023-05-10T09:45:38.300Z,14.31
2023-05-10T09:48:06.302Z,14.33
2023-05-10T09:50:32.987Z,14.35
2023-05-10T09:53:02.027Z,14.36
2023-05-10T09:55:46.917Z,14.25
2023-05-10T09:58:15.094Z,14.39
2023-05-10T10:00:44.621Z,14.46
2023-05-10T10:03:16.317Z,13.75
2023-05-10T10:05:44.630Z,14.33
2023-05-10T10:08:13.194Z,14.57
2023-05-10T10:10:46.708Z,14.61
2023-05-10T10:13:13.537Z,14.49
2023-05-10T10:15:40.359Z,14.65
2023-05-10T10:18:08.922Z,14.60
2023-05-10T10:20:38.546Z,13.96
2023-05-10T10:23:05.274Z,14.52
2023-05-10T10:25:32.285Z,14.53
2023-05-10T10:28:15.528Z,14.61
2023-05-10T10:30:43.585Z,14.66
2023-05-10T10:33:32.207Z,14.70
2023-05-10T10:36:01.364Z,14.42
2023-05-10T10:38:38.880Z,12.93
2023-05-10T10:41:28.146Z,14.55
2023-05-10T10:44:30.214Z,14.80
2023-05-10T10:47:32.052Z,14.77
2023-05-10T10:49:58.790Z,14.88
2023-05-10T10:52:34.127Z,14.37
2023-05-10T10:55:24.234Z,14.97
2023-05-10T10:57:54.503Z,14.59
2023-05-10T11:00:37.151Z,15.02
2023-05-10T11:03:14.610Z,14.94
2023-05-10T11:05:44.730Z,15.18
2023-05-10T11:08:15.897Z,15.27
2023-05-10T11:11:11.175Z,14.95
2023-05-10T11:13:42.287Z,15.34
2023-05-10T11:16:24.505Z,15.29
2023-05-10T11:19:05.279Z,15.24
2023-05-10T11:21:33.768Z,15.44
2023-05-10T11:24:02.138Z,15.49
2023-05-10T11:26:34.858Z,15.15
2023-05-10T11:29:02.976Z,15.29
2023-05-10T11:31:29.926Z,15.49
2023-05-10T11:33:59.201Z,15.62
2023-05-10T11:36:33.218Z,15.67
2023-05-10T11:38:59.949Z,15.43
2023-05-10T11:41:29.466Z,15.65
2023-05-10T11:43:57.487Z,15.78
2023-05-10T11:46:26.849Z,15.25
2023-05-10T11:49:05.353Z,15.79
2023-05-10T11:51:37.530Z,15.60
2023-05-10T11:54:11.803Z,15.92
2023-05-10T11:56:40.174Z,15.90
2023-05-10T11:59:07.476Z,15.90
2023-05-10T12:01:34.875Z,15.67
2023-05-10T12:04:02.236Z,15.91
2023-05-10T12:06:32.767Z,15.95
2023-05-10T12:09:00.612Z,15.96
2023-05-10T12:11:29.115Z,15.97
2023-05-10T12:13:57.217Z,15.45
2023-05-10T12:16:26.248Z,15.95
2023-05-10T12:18:55.101Z,16.00
2023-05-10T12:21:22.464Z,16.06
2023-05-10T12:23:54.292Z,15.70
2023-05-10T12:26:25.867Z,16.09
2023-05-10T12:28:52.748Z,16.01
2023-05-10T12:31:19.706Z,16.02
2023-05-10T12:33:47.465Z,16.02
2023-05-10T12:36:16.281Z,16.00
2023-05-10T12:38:45.036Z,15.99
2023-05-10T12:41:14.151Z,16.10
2023-05-10T12:43:41.549Z,16.12
2023-05-10T12:46:16.244Z,16.19
2023-05-10T12:48:44.564Z,16.25
2023-05-10T12:51:14.150Z,16.08
2023-05-10T12:53:44.223Z,16.16
2023-05-10T12:56:11.904Z,16.25
2023-05-10T12:58:39.434Z,16.36
2023-05-10T13:01:06.733Z,16.16
2023-05-10T13:03:33.417Z,16.29
2023-05-10T13:06:00.128Z,16.48
2023-05-10T13:08:26.923Z,16.53
2023-05-10T13:10:54.224Z,16.43
2023-05-10T13:13:20.955Z,16.54
2023-05-10T13:15:47.657Z,16.53
2023-05-10T13:18:14.548Z,16.65
2023-05-10T13:20:41.348Z,16.50
2023-05-10T13:23:08.036Z,16.46
2023-05-10T13:25:35.414Z,16.62
2023-05-10T13:28:02.414Z,16.66
2023-05-10T13:30:29.940Z,16.66
2023-05-10T13:32:56.582Z,16.66
2023-05-10T13:35:23.577Z,15.83
2023-05-10T13:37:50.322Z,16.53
2023-05-10T13:40:17.957Z,16.35
2023-05-10T13:42:44.939Z,16.54
2023-05-10T13:45:13.289Z,16.54
2023-05-10T13:47:40.312Z,16.62
2023-05-10T13:50:07.958Z,15.82
2023-05-10T13:52:34.818Z,16.64
2023-05-10T13:55:01.660Z,16.70
2023-05-10T13:57:29.817Z,16.73
2023-05-10T13:59:57.704Z,16.52
2023-05-10T14:02:24.512Z,16.76
2023-05-10T14:04:51.188Z,16.75
2023-05-10T14:07:18.770Z,16.38
2023-05-10T14:09:45.707Z,16.80
2023-05-10T14:12:12.575Z,16.75
2023-05-10T14:14:42.325Z,16.46
2023-05-10T14:17:11.460Z,16.11
2023-05-10T14:19:40.001Z,16.74
2023-05-10T14:22:09.803Z,16.42
2023-05-10T14:24:38.960Z,16.22
2023-05-10T14:27:07.039Z,15.40
2023-05-10T14:29:34.006Z,16.77
2023-05-10T14:32:00.993Z,16.42
2023-05-10T14:34:27.637Z,16.83
2023-05-10T14:36:54.383Z,16.27
2023-05-10T14:39:21.046Z,13.72
2023-05-10T14:41:48.329Z,16.79
2023-05-10T14:44:16.465Z,16.84
2023-05-10T14:46:43.631Z,16.82
2023-05-10T14:49:10.312Z,16.85
2023-05-10T14:51:37.925Z,16.81
2023-05-10T14:54:04.724Z,16.96
2023-05-10T14:56:31.443Z,14.48
2023-05-10T14:58:58.123Z,16.87
2023-05-10T15:01:25.455Z,16.92
2023-05-10T15:03:52.822Z,15.59
2023-05-10T15:06:25.873Z,16.86
2023-05-10T15:08:52.666Z,16.55
2023-05-10T15:11:19.538Z,16.88
2023-05-10T15:13:46.398Z,16.68
2023-05-10T15:16:13.135Z,16.90
2023-05-10T15:18:39.835Z,16.50
2023-05-10T15:21:06.530Z,16.76
2023-05-10T15:23:33.230Z,16.90
2023-05-10T15:25:59.864Z,16.73
2023-05-10T15:28:26.604Z,16.77
2023-05-10T15:30:53.366Z,16.53
2023-05-10T15:33:20.080Z,16.32
2023-05-10T15:35:46.771Z,16.65
2023-05-10T15:38:13.528Z,16.71
2023-05-10T15:40:40.241Z,16.93
2023-05-10T15:43:07.463Z,16.92
2023-05-10T15:45:37.335Z,16.90
2023-05-10T15:48:04.685Z,16.86
2023-05-10T15:50:31.380Z,15.94
2023-05-10T15:52:58.220Z,16.52
2023-05-10T15:55:25.021Z,16.26
2023-05-10T15:57:51.721Z,16.96
2023-05-10T16:00:19.162Z,16.75
2023-05-10T16:02:46.137Z,16.41
2023-05-10T16:05:14.021Z,16.54
2023-05-10T16:07:41.985Z,16.72
2023-05-10T16:10:10.638Z,16.76
2023-05-10T16:12:37.857Z,16.37
2023-05-10T16:15:05.018Z,16.86
2023-05-10T16:17:32.253Z,16.84
2023-05-10T16:19:58.940Z,17.10
2023-05-10T16:22:28.864Z,17.11
2023-05-10T16:24:57.886Z,16.39
2023-05-10T16:27:24.727Z,17.03
2023-05-10T16:29:51.539Z,16.90
2023-05-10T16:32:18.166Z,16.92
2023-05-10T16:34:44.833Z,15.74
2023-05-10T16:37:11.488Z,16.88
2023-05-10T16:39:38.462Z,16.28
2023-05-10T16:42:05.152Z,16.97
2023-05-10T16:44:31.922Z,16.28
2023-05-10T16:46:58.569Z,17.06
2023-05-10T16:49:26.221Z,16.71
2023-05-10T16:51:53.129Z,16.39
2023-05-10T16:54:21.385Z,17.09
2023-05-10T16:56:48.089Z,16.62
2023-05-10T16:59:14.729Z,17.07
2023-05-10T17:01:41.604Z,17.03
2023-05-10T17:04:08.574Z,17.00
2023-05-10T17:06:35.907Z,16.98
2023-05-10T17:09:04.040Z,16.75
2023-05-10T17:11:31.322Z,17.09
2023-05-10T17:13:59.168Z,17.12
2023-05-10T17:16:26.294Z,17.12
2023-05-10T17:18:53.441Z,16.80
2023-05-10T17:21:20.180Z,16.99
2023-05-10T17:23:46.904Z,16.48
2023-05-10T17:26:13.659Z,17.14
2023-05-10T17:28:40.621Z,17.11
2023-05-10T17:31:07.565Z,16.41
2023-05-10T17:33:34.347Z,16.84
2023-05-10T17:36:00.985Z,16.58
2023-05-10T17:38:27.667Z,16.88
2023-05-10T17:40:54.920Z,16.71
2023-05-10T17:43:21.858Z,16.76
2023-05-10T17:45:49.709Z,14.65
2023-05-10T17:48:17.352Z,16.65
2023-05-10T17:50:44.564Z,16.40
2023-05-10T17:53:11.480Z,16.25
2023-05-10T17:55:41.685Z,16.27
2023-05-10T17:58:10.810Z,16.49
2023-05-10T18:00:37.771Z,16.26
2023-05-10T18:03:05.564Z,16.50
2023-05-10T18:05:36.161Z,15.89
2023-05-10T18:08:04.127Z,16.37
2023-05-10T18:10:31.055Z,16.37
2023-05-10T18:13:02.472Z,16.35
2023-05-10T18:15:29.174Z,15.56
2023-05-10T18:17:56.796Z,15.70
2023-05-10T18:20:23.669Z,15.96
2023-05-10T18:22:50.751Z,16.25
2023-05-10T18:25:17.828Z,16.21
2023-05-10T18:27:49.418Z,15.44
2023-05-10T18:30:16.320Z,14.96
2023-05-10T18:32:43.040Z,15.15
2023-05-10T18:35:10.234Z,15.65
2023-05-10T18:37:38.703Z,15.29
2023-05-10T18:40:09.573Z,15.78
2023-05-10T18:42:36.362Z,14.69
2023-05-10T18:45:03.590Z,15.83
2023-05-10T18:47:33.870Z,15.49
2023-05-10T18:50:07.968Z,15.00
2023-05-10T18:52:38.188Z,15.28
2023-05-10T18:55:10.020Z,14.19
2023-05-10T18:57:41.243Z,11.61
2023-05-10T19:00:10.493Z,14.01
2023-05-10T19:02:41.076Z,15.41
2023-05-10T19:05:08.614Z,15.25
2023-05-10T19:07:35.700Z,14.96
2023-05-10T19:10:02.951Z,14.83
2023-05-10T19:12:29.694Z,15.10
2023-05-10T19:14:56.387Z,14.16
2023-05-10T19:17:23.085Z,14.66
2023-05-10T19:19:49.781Z,14.00
2023-05-10T19:22:16.484Z,14.72
2023-05-10T19:24:43.258Z,12.22
2023-05-10T19:27:10.118Z,14.18
2023-05-10T19:29:36.896Z,12.77
2023-05-10T19:32:03.854Z,13.90
2023-05-10T19:34:30.658Z,14.08
2023-05-10T19:36:57.378Z,14.52
2023-05-10T19:39:24.269Z,14.44
2023-05-10T19:41:53.572Z,13.17
2023-05-10T19:44:22.233Z,13.97
2023-05-10T19:46:48.952Z,14.26
2023-05-10T19:49:16.510Z,14.10
2023-05-10T19:51:43.354Z,13.97
2023-05-10T19:54:10.286Z,12.95
2023-05-10T19:56:38.838Z,12.69
2023-05-10T19:59:07.710Z,13.93
2023-05-10T20:01:36.485Z,13.82
2023-05-10T20:04:03.407Z,13.73
2023-05-10T20:06:30.205Z,13.59
2023-05-10T20:08:57.020Z,12.94
2023-05-10T20:11:23.661Z,13.66
2023-05-10T20:13:50.383Z,13.50
2023-05-10T20:16:17.065Z,13.41
2023-05-10T20:18:45.031Z,13.37
2023-05-10T20:21:11.957Z,12.80
2023-05-10T20:23:38.670Z,13.45
2023-05-10T20:26:08.248Z,13.10
2023-05-10T20:28:39.063Z,13.39
2023-05-10T20:31:09.881Z,13.32
2023-05-10T20:33:36.841Z,13.03
2023-05-10T20:36:04.128Z,13.03
2023-05-10T20:38:30.719Z,12.11
2023-05-10T20:40:57.381Z,12.50
2023-05-10T20:43:24.188Z,12.45
2023-05-10T20:45:50.868Z,12.65
2023-05-10T20:48:17.654Z,12.65
2023-05-10T20:50:44.370Z,12.69
2023-05-10T20:53:12.300Z,12.31
2023-05-10T20:55:38.955Z,12.58
2023-05-10T20:58:06.268Z,12.50
2023-05-10T21:00:32.841Z,11.97
2023-05-10T21:02:59.523Z,10.84
2023-05-10T21:05:26.391Z,12.61
2023-05-10T21:07:54.533Z,12.42
2023-05-10T21:10:21.760Z,12.38
2023-05-10T21:12:48.443Z,11.74
2023-05-10T21:15:15.196Z,12.34
2023-05-10T21:17:41.837Z,11.87
2023-05-10T21:20:08.949Z,12.23
2023-05-10T21:22:35.625Z,12.17
2023-05-10T21:25:02.240Z,12.18
2023-05-10T21:27:29.016Z,12.11
2023-05-10T21:29:55.659Z,12.11
2023-05-10T21:32:22.524Z,12.14
2023-05-10T21:34:49.190Z,12.06
2023-05-10T21:37:17.424Z,11.66
2023-05-10T21:39:44.445Z,11.67
2023-05-10T21:42:11.385Z,11.45
2023-05-10T21:44:38.705Z,11.53
2023-05-10T21:47:05.498Z,11.57
2023-05-10T21:49:32.218Z,11.47
2023-05-10T21:51:58.800Z,11.07
2023-05-10T21:54:25.510Z,10.69
2023-05-10T21:56:52.295Z,10.30
2023-05-10T21:59:19.040Z,10.16
2023-05-10T22:01:45.918Z,9.91
2023-05-10T22:04:12.730Z,10.07
2023-05-10T22:06:39.359Z,10.15
2023-05-10T22:09:06.588Z,8.29
2023-05-10T22:11:33.298Z,10.36
2023-05-10T22:13:59.948Z,10.47
2023-05-10T22:16:26.854Z,10.53
2023-05-10T22:18:54.527Z,10.34
2023-05-10T22:21:21.610Z,10.07
2023-05-10T22:23:48.270Z,9.88
2023-05-10T22:26:14.933Z,10.04
2023-05-10T22:28:41.645Z,9.69
2023-05-10T22:31:13.025Z,9.25
2023-05-10T22:33:39.760Z,8.65
2023-05-10T22:36:06.805Z,8.21
2023-05-10T22:38:33.465Z,9.10
2023-05-10T22:41:00.117Z,8.94
2023-05-10T22:43:26.968Z,9.04
2023-05-10T22:45:53.645Z,8.27
2023-05-10T22:48:20.961Z,9.29
2023-05-10T22:50:47.761Z,9.07
2023-05-10T22:53:14.453Z,8.84
2023-05-10T22:55:41.260Z,8.93
2023-05-10T22:58:08.048Z,8.91
2023-05-10T23:00:34.776Z,8.81
2023-05-10T23:03:02.024Z,9.08
2023-05-10T23:05:28.750Z,8.92
2023-05-10T23:07:55.502Z,8.82
2023-05-10T23:10:22.318Z,8.73
2023-05-10T23:12:49.032Z,9.04
2023-05-10T23:15:15.811Z,9.27
2023-05-10T23:17:42.618Z,9.14
2023-05-10T23:20:10.016Z,8.30
2023-05-10T23:22:37.421Z,8.77
2023-05-10T23:25:04.381Z,9.19
2023-05-10T23:27:31.074Z,8.16
2023-05-10T23:29:58.049Z,8.73
2023-05-10T23:32:24.852Z,8.92
2023-05-10T23:34:51.571Z,8.82
2023-05-10T23:37:18.240Z,8.83
2023-05-10T23:39:44.869Z,8.94
2023-05-10T23:42:11.698Z,8.76
2023-05-10T23:44:38.355Z,8.67
2023-05-10T23:47:05.093Z,8.29
2023-05-10T23:49:31.718Z,8.58
2023-05-10T23:51:58.507Z,8.92
2023-05-10T23:54:25.167Z,9.05
2023-05-10T23:56:52.134Z,9.06
2023-05-10T23:59:18.887Z,8.85
